Time;durP1;ratioP1;P1;durP2;ratioP2;P2;SDS_P1;SDS_P2;PMS_P1;PMS_P2;Temp;Humidity;BMP_temperature;BMP_pressure;BME280_temperature;BME280_humidity;BME280_pressure;Samples;Min_cycle;Max_cycle;Signal;HPM_P1;HPM_P2
2021/03/28 00:00:55;;;;;;;22.85;15.38;;;;;;;4.43;63.74;101191.13;5113036;28;20027;-24
2021/03/28 00:03:36;;;;;;;25.40;16.02;;;;;;;4.62;62.83;101186.66;5112144;28;20086;-24
2021/03/28 00:06:15;;;;;;;26.98;17.77;;;;;;;5.03;62.30;101194.91;5079258;28;20107;-24
2021/03/28 00:08:45;;;;;;;30.15;18.38;;;;;;;5.16;61.55;101195.28;5094826;28;20029;-24
2021/03/28 00:11:19;;;;;;;32.65;19.63;;;;;;;5.65;59.66;101189.44;5078384;28;20112;-23
2021/03/28 00:13:50;;;;;;;31.98;20.10;;;;;;;6.01;58.09;101205.19;5094337;28;20030;-23
2021/03/28 00:16:16;;;;;;;27.10;17.77;;;;;;;5.53;58.75;101174.84;5078086;28;20050;-24
2021/03/28 00:19:02;;;;;;;25.45;17.10;;;;;;;4.85;61.54;101199.38;5077545;28;20475;-24
2021/03/28 00:21:33;;;;;;;28.92;17.58;;;;;;;5.10;61.20;101195.09;5093966;28;20039;-23
2021/03/28 00:24:11;;;;;;;30.50;19.67;;;;;;;5.60;59.30;101189.94;5094149;28;20081;-23
2021/03/28 00:26:40;;;;;;;28.60;20.23;;;;;;;5.89;57.80;101183.41;5112478;28;20039;-23
2021/03/28 00:29:09;;;;;;;28.75;17.95;;;;;;;5.78;58.03;101204.88;5093930;28;20031;-23
2021/03/28 00:31:53;;;;;;;27.23;18.38;;;;;;;5.94;57.66;101193.53;5111997;28;20406;-24
2021/03/28 00:34:19;;;;;;;33.72;21.95;;;;;;;5.45;59.04;101202.06;5079357;28;20055;-22
2021/03/28 00:36:54;;;;;;;37.15;24.13;;;;;;;5.45;59.20;101191.50;5111283;28;20066;-24
2021/03/28 00:39:41;;;;;;;28.55;18.70;;;;;;;4.38;61.92;101190.72;5094814;28;20023;-23
2021/03/28 00:42:10;;;;;;;26.92;18.58;;;;;;;4.72;61.80;101187.41;5078424;28;20070;-23
2021/03/28 00:44:45;;;;;;;29.95;18.75;;;;;;;5.32;59.26;101201.69;5111819;28;20031;-24
2021/03/28 00:47:11;;;;;;;27.35;17.52;;;;;;;5.00;60.80;101198.66;5111791;28;20023;-24
2021/03/28 00:49:39;;;;;;;25.05;16.73;;;;;;;5.06;59.96;101176.06;5077113;28;20039;-24
2021/03/28 00:52:20;;;;;;;23.98;15.98;;;;;;;4.73;61.06;101194.31;5093474;28;20507;-24
2021/03/28 00:54:51;;;;;;;33.05;18.65;;;;;;;4.50;60.91;101185.22;5076678;28;20055;-24
2021/03/28 00:57:31;;;;;;;31.02;17.17;;;;;;;5.34;58.74;101197.06;5077220;28;20028;-23
2021/03/28 01:00:01;;;;;;;24.65;16.45;;;;;;;4.98;58.50;101176.00;5111679;28;20032;-23
2021/03/28 01:02:32;;;;;;;25.92;16.73;;;;;;;4.74;58.83;101152.88;5076683;28;20070;-23
2021/03/28 01:05:01;;;;;;;25.98;15.23;;;;;;;4.68;60.21;101191.31;5111498;28;20026;-24
2021/03/28 01:07:32;;;;;;;;;;;;;;;4.52;60.61;101201.75;5111529;28;20427;-23
2021/03/28 01:10:29;;;;;;;26.40;16.17;;;;;;;4.43;61.18;101199.03;5111800;28;19936;-24
2021/03/28 01:12:54;;;;;;;28.10;16.33;;;;;;;4.49;61.37;101192.28;5111416;28;20020;-24
2021/03/28 01:15:42;;;;;;;46.70;25.27;;;;;;;4.36;61.18;101197.16;5111001;28;20030;-24
2021/03/28 01:18:34;;;;;;;30.53;16.63;;;;;;;4.07;62.56;101197.34;5111393;28;20549;-24
2021/03/28 01:21:09;;;;;;;25.65;15.90;;;;;;;3.91;63.14;101198.81;5092934;28;20118;-23
2021/03/28 01:23:42;;;;;;;23.52;15.82;;;;;;;3.90;62.61;101176.03;5110971;28;20031;-24
2021/03/28 01:26:35;;;;;;;21.70;14.18;;;;;;;4.27;61.47;101198.03;5076229;28;20403;-24
2021/03/28 01:29:11;;;;;;;22.33;15.05;;;;;;;4.12;61.24;101192.44;5093939;28;20488;-24
2021/03/28 01:31:53;;;;;;;22.25;14.32;;;;;;;4.39;60.92;101188.91;5077398;28;20031;-23
2021/03/28 01:34:25;;;;;;;25.33;15.52;;;;;;;4.68;60.07;101186.03;5092850;28;20157;-23
2021/03/28 01:37:44;;;;;;;26.13;15.18;;;;;;;4.33;61.20;101203.56;5076136;28;20031;-23
2021/03/28 01:40:37;;;;;;;23.05;14.75;;;;;;;4.30;60.71;101193.28;5048839;28;20047;-24
2021/03/28 01:43:30;;;;;;;20.55;13.63;;;;;;;4.28;60.75;101205.81;5110957;28;20042;-24
2021/03/28 01:45:58;;;;;;;21.17;14.00;;;;;;;4.28;60.24;101181.22;5110668;28;20043;-24
2021/03/28 01:48:42;;;;;;;25.73;14.38;;;;;;;3.99;61.19;101206.81;5092553;28;20067;-24
2021/03/28 01:51:44;;;;;;;23.38;15.60;;;;;;;3.32;63.42;101198.22;5110621;28;20472;-24
2021/03/28 01:54:19;;;;;;;37.42;23.65;;;;;;;3.14;63.61;101199.94;5110776;28;20032;-24
2021/03/28 01:56:53;;;;;;;35.88;21.73;;;;;;;3.68;62.06;101192.25;5092354;28;20076;-23
2021/03/28 01:59:37;;;;;;;29.88;17.80;;;;;;;3.49;63.44;101194.00;5092121;28;20518;-24
2021/03/28 02:02:37;;;;;;;24.88;15.90;;;;;;;3.10;64.55;101159.84;5110310;28;20040;-24
2021/03/28 02:05:22;;;;;;;23.73;14.35;;;;;;;3.47;63.13;101166.94;5094811;28;20031;-23
2021/03/28 02:08:06;;;;;;;24.65;14.23;;;;;;;3.19;64.93;101198.56;5110675;28;20039;-24
2021/03/28 02:10:56;;;;;;;22.17;13.35;;;;;;;2.60;66.34;101191.69;5110184;28;20490;-23
2021/03/28 02:13:31;;;;;;;21.23;14.00;;;;;;;3.00;65.66;101193.31;5093664;28;20028;-22
2021/03/28 02:16:09;;;;;;;24.38;15.48;;;;;;;2.97;64.89;101188.34;5110161;28;20481;-24
2021/03/28 02:18:38;;;;;;;;;;;;;;;2.46;66.74;101200.03;5110865;28;20120;-24
2021/03/28 02:21:09;;;;;;;;;;;;;;;2.37;67.17;101191.97;5110760;28;19940;-21
2021/03/28 02:23:53;;;;;;;22.13;13.25;;;;;;;2.55;66.50;101201.81;5091667;28;20011;-23
2021/03/28 02:26:30;;;;;;;23.30;14.30;;;;;;;2.53;66.36;101185.31;5110203;28;20023;-21
2021/03/28 02:29:07;;;;;;;31.17;17.42;;;;;;;1.98;68.17;101197.19;5075189;28;20095;-22
2021/03/28 02:31:44;;;;;;;22.38;14.65;;;;;;;2.25;66.49;101198.34;5091868;28;20388;-23
2021/03/28 02:34:10;;;;;;;28.73;16.67;;;;;;;2.55;64.67;101199.16;5109950;28;20046;-24
2021/03/28 02:36:40;;;;;;;27.33;15.68;;;;;;;2.83;63.90;101189.59;5109625;28;20040;-24
2021/03/28 02:39:11;;;;;;;31.45;18.77;;;;;;;3.15;61.79;101170.00;5091516;28;20031;-24
2021/03/28 02:41:55;;;;;;;24.35;14.48;;;;;;;3.37;62.69;101200.44;5109755;28;20103;-23
2021/03/28 02:44:42;;;;;;;24.38;14.98;;;;;;;2.90;63.67;101197.75;5109747;28;20032;-24
2021/03/28 02:47:29;;;;;;;24.30;14.47;;;;;;;2.92;63.38;101206.34;5109491;28;20031;-22
2021/03/28 02:50:07;;;;;;;22.75;13.27;;;;;;;3.03;63.20;101208.84;5109560;28;20023;-24
2021/03/28 02:52:57;;;;;;;22.60;13.65;;;;;;;3.56;61.52;101210.91;5092062;28;20491;-22
2021/03/28 02:55:52;;;;;;;19.60;12.32;;;;;;;3.44;60.64;101206.81;5109272;28;20388;-22
2021/03/28 02:58:38;;;;;;;23.58;13.77;;;;;;;3.49;60.83;101204.53;5091228;28;20035;-24
2021/03/28 03:01:15;;;;;;;26.70;15.25;;;;;;;3.33;61.31;101205.19;5108968;28;20031;-24
2021/03/28 03:04:06;;;;;;;24.63;14.32;;;;;;;3.40;61.04;101205.44;5109058;28;20063;-24
2021/03/28 03:06:37;;;;;;;23.50;13.95;;;;;;;3.37;61.00;101190.72;5109430;28;20028;-24
2021/03/28 03:09:15;;;;;;;25.25;14.38;;;;;;;3.54;60.66;101212.03;5109302;28;20024;-24
2021/03/28 03:12:06;;;;;;;20.75;13.02;;;;;;;3.54;60.98;101207.59;5109499;28;20103;-24
2021/03/28 03:15:26;;;;;;;20.58;13.32;;;;;;;2.96;63.09;101210.38;5091240;28;20065;-23
2021/03/28 03:18:06;;;;;;;23.65;14.05;;;;;;;2.31;64.44;101210.09;5046279;28;20025;-24
2021/03/28 03:20:53;;;;;;;21.10;13.57;;;;;;;2.99;62.80;101218.00;5102456;28;20048;-24
2021/03/28 03:23:43;;;;;;;22.02;13.57;;;;;;;3.61;61.21;101224.50;5108969;28;20114;-23
2021/03/28 03:26:35;;;;;;;20.90;13.40;;;;;;;3.26;62.12;101205.88;5109401;28;20081;-22
2021/03/28 03:29:10;;;;;;;20.48;12.63;;;;;;;3.20;61.39;101208.09;5075165;28;20023;-24
2021/03/28 03:32:13;;;;;;;20.92;13.10;;;;;;;3.06;62.67;101234.09;5090877;28;20039;-24
2021/03/28 03:34:44;;;;;;;22.17;13.85;;;;;;;3.86;59.66;101238.00;5090784;28;20384;-23
2021/03/28 03:37:48;;;;;;;27.20;14.50;;;;;;;3.64;60.20;101239.22;5109234;28;20028;-23
2021/03/28 03:40:16;;;;;;;22.70;14.73;;;;;;;3.51;60.64;101239.53;5109125;28;20096;-24
2021/03/28 03:43:12;;;;;;;21.10;13.93;;;;;;;3.63;60.42;101238.38;5109147;28;20067;-24
2021/03/28 03:45:59;;;;;;;22.45;12.98;;;;;;;3.32;61.40;101231.69;5108972;28;20114;-23
2021/03/28 03:49:03;;;;;;;21.48;12.85;;;;;;;3.56;60.52;101228.56;5108877;28;20031;-24
2021/03/28 03:51:47;;;;;;;20.63;12.80;;;;;;;3.35;60.43;101234.88;5097382;28;20039;-24
2021/03/28 03:54:37;;;;;;;20.35;12.55;;;;;;;2.77;62.32;101229.66;5109016;28;20063;-24
2021/03/28 03:57:08;;;;;;;21.77;12.88;;;;;;;2.39;63.69;101242.69;5108986;28;20114;-24
2021/03/28 03:59:48;;;;;;;23.40;12.60;;;;;;;2.27;64.04;101238.50;5108642;28;20175;-24
2021/03/28 04:02:19;;;;;;;24.73;12.63;;;;;;;2.28;64.37;101245.44;5108667;28;20030;-23
2021/03/28 04:05:05;;;;;;;17.35;11.20;;;;;;;2.43;63.81;101243.22;5109191;28;20511;-23
2021/03/28 04:07:48;;;;;;;22.45;12.02;;;;;;;2.86;61.67;101243.81;5092202;28;20063;-23
2021/03/28 04:10:43;;;;;;;19.20;11.88;;;;;;;2.98;61.65;101227.72;5109088;28;20038;-24
2021/03/28 04:13:15;;;;;;;19.48;11.18;;;;;;;2.89;62.44;101238.28;5038855;28;20095;-23
2021/03/28 04:16:01;;;;;;;22.98;12.68;;;;;;;2.76;62.42;101223.56;5112645;28;20107;-24
2021/03/28 04:18:28;;;;;;;19.67;12.55;;;;;;;3.14;61.36;101242.94;5077814;28;20039;-23
2021/03/28 04:21:23;;;;;;;22.80;13.20;;;;;;;2.61;62.73;101235.50;5094309;28;20043;-23
2021/03/28 04:23:58;;;;;;;23.27;14.32;;;;;;;2.46;64.03;101236.88;5068199;28;20036;-23
2021/03/28 04:26:41;;;;;;;25.95;15.02;;;;;;;2.06;65.00;101230.69;5112409;28;20040;-23
2021/03/28 04:29:07;;;;;;;33.78;17.08;;;;;;;2.47;63.35;101217.47;5078571;28;20035;-23
2021/03/28 04:31:57;;;;;;;32.10;16.90;;;;;;;2.46;63.77;101237.69;5093861;28;20063;-23
2021/03/28 04:34:24;;;;;;;35.45;18.02;;;;;;;2.55;64.14;101242.13;5112435;28;20034;-24
2021/03/28 04:36:49;;;;;;;33.28;21.15;;;;;;;2.64;64.11;101243.13;5112250;28;20135;-24
2021/03/28 04:39:29;;;;;;;108.90;49.50;;;;;;;3.28;61.78;101251.41;5111707;28;20122;-23
2021/03/28 04:42:22;;;;;;;63.15;32.45;;;;;;;3.54;60.63;101247.16;5112025;28;20051;-24
2021/03/28 04:45:03;;;;;;;31.27;19.50;;;;;;;3.63;60.44;101254.19;5093835;28;20169;-24
2021/03/28 04:47:43;;;;;;;30.25;18.45;;;;;;;3.78;60.64;101257.22;5077110;28;20039;-23
2021/03/28 04:50:24;;;;;;;40.13;26.00;;;;;;;3.54;61.82;101260.34;5112057;28;20027;-21
2021/03/28 04:52:59;;;;;;;50.42;28.67;;;;;;;2.74;64.10;101261.56;5111707;28;20027;-23
2021/03/28 04:55:52;;;;;;;24.17;16.45;;;;;;;2.11;65.54;101254.81;5111757;28;20101;-23
2021/03/28 04:58:22;;;;;;;28.35;16.60;;;;;;;1.87;66.08;101242.00;5095933;28;20035;-23
2021/03/28 05:01:39;;;;;;;28.45;16.38;;;;;;;1.70;67.19;101255.78;5093491;28;20035;-24
2021/03/28 05:04:26;;;;;;;33.60;18.52;;;;;;;2.13;66.77;101287.09;5076384;28;20048;-23
2021/03/28 05:07:29;;;;;;;25.63;16.13;;;;;;;2.31;66.32;101281.16;5111698;28;20023;-23
2021/03/28 05:10:32;;;;;;;27.70;15.50;;;;;;;2.35;66.89;101290.47;5111640;28;20058;-24
2021/03/28 05:13:16;;;;;;;22.10;13.90;;;;;;;2.24;68.14;101290.59;5111523;28;20028;-23
2021/03/28 05:16:03;;;;;;;24.83;14.90;;;;;;;2.32;68.37;101299.47;5111589;28;20059;-23
2021/03/28 05:18:47;;;;;;;29.17;17.13;;;;;;;2.32;68.74;101294.22;5111487;28;20890;-23
2021/03/28 05:21:45;;;;;;;26.92;16.50;;;;;;;2.83;66.61;101292.34;5110908;28;20030;-24
2021/03/28 05:24:34;;;;;;;34.90;21.52;;;;;;;2.81;66.44;101289.00;5097231;28;20042;-23
2021/03/28 05:27:21;;;;;;;34.38;21.05;;;;;;;3.08;66.67;101298.84;5092983;28;20031;-23
2021/03/28 05:30:19;;;;;;;31.25;18.65;;;;;;;3.74;64.46;101303.34;5092787;28;20031;-24
2021/03/28 05:33:05;;;;;;;32.50;19.95;;;;;;;4.19;62.91;101291.22;5055455;28;20041;-24
2021/03/28 05:35:40;;;;;;;35.40;21.35;;;;;;;4.10;64.06;101307.91;5092883;28;20032;-23
2021/03/28 05:38:24;;;;;;;54.03;28.40;;;;;;;7.72;64.62;101306.97;5092919;28;20035;-23
2021/03/28 05:41:11;;;;;;;25.70;16.73;;;;;;;8.19;54.61;101318.63;5110851;28;20024;-23
2021/03/28 05:44:34;;;;;;;26.90;18.13;;;;;;;9.15;60.11;101314.75;5110791;28;20035;-23
2021/03/28 05:47:08;;;;;;;30.48;19.13;;;;;;;10.73;53.49;101313.69;5047724;28;20124;-23
2021/03/28 05:49:52;;;;;;;30.35;19.13;;;;;;;10.35;48.84;101313.88;5047549;28;20171;-23
2021/03/28 05:52:38;;;;;;;22.60;15.57;;;;;;;12.09;51.18;101315.38;5088090;28;20406;-23
2021/03/28 05:55:22;;;;;;;22.10;14.68;;;;;;;12.92;48.00;101323.28;5110760;28;20472;-23
2021/03/28 05:58:16;;;;;;;23.38;15.77;;;;;;;12.91;44.15;101321.63;5093461;28;20479;-23
2021/03/28 06:00:41;;;;;;;20.10;13.10;;;;;;;10.45;51.23;101308.25;5092163;28;20443;-23
2021/03/28 06:03:19;;;;;;;21.17;14.30;;;;;;;9.48;47.99;101317.16;5091921;28;20157;-24
2021/03/28 06:06:19;;;;;;;24.42;16.00;;;;;;;11.01;49.02;101323.59;5110604;28;20772;-23
2021/03/28 06:09:06;;;;;;;25.38;14.80;;;;;;;11.03;46.93;101318.91;5110334;28;20035;-24
2021/03/28 06:11:52;;;;;;;41.20;23.40;;;;;;;10.97;48.80;101315.16;5110080;28;20066;-24
2021/03/28 06:14:47;;;;;;;28.23;19.00;;;;;;;8.72;50.91;101316.22;5110249;28;20032;-24
2021/03/28 06:17:15;;;;;;;26.92;17.98;;;;;;;8.00;52.23;101325.19;5092002;28;20031;-23
2021/03/28 06:20:02;;;;;;;25.50;16.63;;;;;;;8.53;56.40;101320.16;5110101;28;20049;-23
2021/03/28 06:23:12;;;;;;;21.60;13.82;;;;;;;7.34;53.94;101313.84;5109982;28;20028;-23
2021/03/28 06:25:59;;;;;;;23.65;14.18;;;;;;;7.14;55.45;101316.00;5110041;28;20062;-23
2021/03/28 06:28:33;;;;;;;21.65;13.93;;;;;;;6.56;58.68;101320.38;5109839;28;20423;-24
2021/03/28 06:31:11;;;;;;;24.85;15.48;;;;;;;6.76;57.34;101295.28;5110133;28;20411;-23
2021/03/28 06:34:14;;;;;;;26.73;15.75;;;;;;;7.14;61.45;101322.13;5075562;28;20023;-23
2021/03/28 06:36:42;;;;;;;46.35;26.05;;;;;;;7.41;56.01;101325.44;5109760;28;20087;-23
2021/03/28 06:39:32;;;;;;;31.05;19.85;;;;;;;7.13;58.98;101330.25;5109713;28;20059;-24
2021/03/28 06:42:07;;;;;;;24.35;16.17;;;;;;;8.07;55.02;101335.94;5091660;28;20114;-23
2021/03/28 06:44:48;;;;;;;24.92;15.05;;;;;;;8.71;53.33;101339.34;5091639;28;20407;-23
2021/03/28 06:47:35;;;;;;;26.95;15.88;;;;;;;9.78;52.96;101333.16;5109486;28;20060;-23
2021/03/28 06:50:22;;;;;;;21.03;13.87;;;;;;;8.34;55.56;101322.22;5109768;28;20019;-23
2021/03/28 06:53:11;;;;;;;28.98;18.17;;;;;;;10.38;48.90;101307.31;5109559;28;20768;-23
2021/03/28 06:55:46;;;;;;;25.40;15.32;;;;;;;11.51;46.43;101337.00;5094161;28;20019;-23
2021/03/28 06:58:45;;;;;;;27.35;16.63;;;;;;;11.57;47.10;101331.69;5109644;28;20039;-23
2021/03/28 07:01:48;;;;;;;23.17;15.15;;;;;;;12.58;44.72;101333.06;5109281;28;20110;-20
2021/03/28 07:04:16;;;;;;;21.90;15.57;;;;;;;14.07;42.88;101330.03;5109139;28;20058;-23
2021/03/28 07:07:05;;;;;;;23.13;14.27;;;;;;;13.70;42.25;101336.09;5109695;28;20530;-23
2021/03/28 07:09:34;;;;;;;22.13;15.48;;;;;;;13.29;43.05;101334.44;5092919;28;20031;-23
2021/03/28 07:12:09;;;;;;;25.02;15.48;;;;;;;12.81;46.79;101332.72;5109240;28;20487;-23
2021/03/28 07:15:13;;;;;;;21.20;13.55;;;;;;;14.14;44.54;101335.38;5074575;28;20059;-24
2021/03/28 07:17:48;;;;;;;21.67;12.73;;;;;;;13.47;42.47;101337.34;5109260;28;20024;-23
2021/03/28 07:20:35;;;;;;;19.58;13.55;;;;;;;13.40;45.41;101331.16;5109216;28;20028;-24
2021/03/28 07:23:19;;;;;;;18.33;12.38;;;;;;;12.30;43.66;101330.47;5091182;28;20027;-23
2021/03/28 07:25:55;;;;;;;18.08;12.20;;;;;;;12.27;44.01;101326.38;5109260;28;20035;-23
2021/03/28 07:28:39;;;;;;;16.13;10.57;;;;;;;12.05;44.61;101322.97;5092631;28;20426;-24
2021/03/28 07:31:40;;;;;;;17.95;11.73;;;;;;;12.89;45.04;101326.34;5089968;28;20063;-24
2021/03/28 07:34:42;;;;;;;18.00;11.02;;;;;;;12.95;42.93;101328.22;5090879;28;20406;-23
2021/03/28 07:37:20;;;;;;;18.58;10.82;;;;;;;13.04;44.80;101329.69;5109181;28;20092;-23
2021/03/28 07:40:13;;;;;;;16.13;10.57;;;;;;;12.82;44.10;101332.50;5109123;28;20053;-23
2021/03/28 07:42:50;;;;;;;16.00;10.57;;;;;;;14.17;38.73;101323.41;5108977;28;20513;-23
2021/03/28 07:45:58;;;;;;;16.47;10.37;;;;;;;13.35;41.80;101318.38;5108958;28;20036;-24
2021/03/28 07:48:54;;;;;;;14.60;10.20;;;;;;;13.08;43.47;101325.56;5094871;28;20035;-23
2021/03/28 07:51:31;;;;;;;13.93;9.77;;;;;;;13.61;41.25;101312.19;5112898;28;20051;-23
2021/03/28 07:54:34;;;;;;;15.32;10.30;;;;;;;13.88;41.57;101314.00;5112992;28;20085;-23
2021/03/28 07:57:25;;;;;;;14.48;10.05;;;;;;;13.32;42.90;101318.81;5113045;28;20035;-24
2021/03/28 08:00:23;;;;;;;16.88;10.40;;;;;;;14.40;40.28;101310.28;5095813;28;20023;-22
2021/03/28 08:02:54;;;;;;;;;;;;;;;15.00;40.51;101309.16;5097754;28;20144;-24
2021/03/28 08:05:25;;;;;;;14.85;9.93;;;;;;;14.85;39.89;101313.00;5112452;28;20297;-23
2021/03/28 08:08:07;;;;;;;18.73;13.35;;;;;;;15.32;38.36;101306.44;5094097;28;20100;-23
2021/03/28 08:10:47;;;;;;;14.80;10.10;;;;;;;15.08;37.34;101308.91;5094455;28;20035;-23
2021/03/28 08:13:21;;;;;;;14.63;10.23;;;;;;;15.05;39.51;101306.63;5094246;28;20058;-23
2021/03/28 08:15:51;;;;;;;19.40;11.68;;;;;;;14.52;38.51;101290.84;5112545;28;20035;-24
2021/03/28 08:18:27;;;;;;;147.55;85.55;;;;;;;14.69;38.87;101302.75;5094328;28;20024;-23
2021/03/28 08:21:43;;;;;;;15.98;11.23;;;;;;;14.65;37.53;101290.81;5094409;28;20122;-23
2021/03/28 08:24:30;;;;;;;11.65;8.32;;;;;;;14.87;37.25;101299.31;5049401;28;20067;-24
2021/03/28 08:27:29;;;;;;;11.15;7.72;;;;;;;14.66;39.47;101300.50;5108005;28;20040;-24
2021/03/28 08:29:57;;;;;;;18.67;10.07;;;;;;;14.69;39.58;101300.06;5112467;28;20028;-23
2021/03/28 08:32:35;;;;;;;14.00;8.30;;;;;;;15.49;38.29;101288.72;5094215;28;20747;-23
2021/03/28 08:35:18;;;;;;;12.57;8.50;;;;;;;15.00;36.63;101293.06;5094003;28;20038;-24
2021/03/28 08:38:03;;;;;;;12.75;8.80;;;;;;;15.32;37.20;101287.59;5111924;28;20542;-23
2021/03/28 08:40:39;;;;;;;13.32;9.18;;;;;;;15.15;36.80;101269.34;5112149;28;20070;-23
2021/03/28 08:43:23;;;;;;;14.10;8.88;;;;;;;15.53;37.27;101283.69;5093691;28;20039;-23
2021/03/28 08:46:28;;;;;;;14.70;9.18;;;;;;;16.06;36.34;101289.38;5112018;28;20055;-23
2021/03/28 08:48:56;;;;;;;14.80;9.77;;;;;;;15.31;37.83;101294.03;5112005;28;20062;-23
2021/03/28 08:51:21;;;;;;;;;;;;;;;15.25;38.50;101291.19;5112088;28;20040;-23
2021/03/28 08:54:06;;;;;;;14.13;9.05;;;;;;;15.34;37.04;101277.47;5111268;28;19912;-23
2021/03/28 08:57:05;;;;;;;16.70;11.27;;;;;;;15.40;38.35;101281.94;5093695;28;20027;-23
2021/03/28 08:59:50;;;;;;;15.88;10.50;;;;;;;15.92;37.03;101270.91;5093267;28;20058;-23
2021/03/28 09:02:34;;;;;;;13.73;9.88;;;;;;;16.09;36.75;101279.19;5111556;28;20032;-23
2021/03/28 09:05:19;;;;;;;12.43;9.70;;;;;;;16.43;35.62;101281.22;5111486;28;20038;-23
2021/03/28 09:08:07;;;;;;;13.93;9.38;;;;;;;16.31;37.88;101280.38;5093511;28;20031;-23
2021/03/28 09:10:55;;;;;;;15.23;9.40;;;;;;;16.20;37.85;101264.97;5093428;28;20499;-22
2021/03/28 09:13:47;;;;;;;13.50;8.90;;;;;;;16.15;37.45;101259.44;5111403;28;20086;-23
2021/03/28 09:16:30;;;;;;;14.55;9.75;;;;;;;16.50;37.79;101270.38;5111412;28;20027;-23
2021/03/28 09:19:24;;;;;;;13.98;9.02;;;;;;;16.44;36.22;101261.31;5076541;28;20035;-23
2021/03/28 09:22:01;;;;;;;16.17;9.90;;;;;;;16.75;37.27;101264.00;5111356;28;20035;-23
2021/03/28 09:24:42;;;;;;;13.20;8.27;;;;;;;16.57;36.48;101243.34;5111401;28;20030;-23
2021/03/28 09:27:32;;;;;;;13.00;8.40;;;;;;;16.60;37.78;101254.47;5111266;28;20024;-23
2021/03/28 09:30:28;;;;;;;12.95;8.00;;;;;;;16.89;37.17;101256.56;5111137;28;20024;-22
2021/03/28 09:32:59;;;;;;;15.07;8.50;;;;;;;16.84;36.90;101243.81;5111150;28;20459;-23
2021/03/28 09:35:49;;;;;;;14.07;8.60;;;;;;;17.15;37.92;101245.34;5092778;28;20503;-22
2021/03/28 09:38:27;;;;;;;11.88;8.55;;;;;;;17.06;37.32;101241.34;5111040;28;20027;-22
2021/03/28 09:41:14;;;;;;;15.57;8.95;;;;;;;17.41;36.54;101237.84;5111033;28;20024;-23
2021/03/28 09:43:53;;;;;;;14.30;8.63;;;;;;;17.34;36.83;101237.16;5110845;28;20038;-23
2021/03/28 09:46:45;;;;;;;14.02;8.90;;;;;;;17.42;37.47;101234.91;5092801;28;20407;-23
2021/03/28 09:49:35;;;;;;;12.68;8.90;;;;;;;17.62;36.18;101229.13;5092444;28;20084;-23
2021/03/28 09:52:37;;;;;;;12.75;8.18;;;;;;;17.72;35.72;101225.84;5110526;28;20118;-22
2021/03/28 09:55:28;;;;;;;16.35;8.77;;;;;;;17.75;36.06;101238.84;5088228;28;20047;-23
2021/03/28 09:58:33;;;;;;;12.27;8.60;;;;;;;17.97;36.04;101208.56;5110630;28;20038;-22
2021/03/28 10:01:06;;;;;;;12.20;8.20;;;;;;;18.13;36.88;101223.97;5081327;28;20092;-22
2021/03/28 10:03:56;;;;;;;16.92;8.57;;;;;;;18.85;34.44;101226.09;5110406;28;20056;-22
2021/03/28 10:06:23;;;;;;;12.85;7.65;;;;;;;19.51;32.71;101214.59;5110441;28;20030;-22
2021/03/28 10:09:08;;;;;;;11.90;8.38;;;;;;;19.16;32.63;101220.34;5092257;28;20559;-23
2021/03/28 10:11:44;;;;;;;14.27;8.30;;;;;;;19.24;33.76;101218.03;5094509;28;20034;-22
2021/03/28 10:14:12;;;;;;;12.05;8.10;;;;;;;19.25;32.26;101214.25;5075769;28;20392;-22
2021/03/28 10:17:36;;;;;;;11.48;7.65;;;;;;;19.35;33.21;101212.75;5092116;28;20483;-22
2021/03/28 10:20:17;;;;;;;13.48;8.73;;;;;;;19.48;33.00;101213.22;5079487;28;20122;-22
2021/03/28 10:22:49;;;;;;;15.13;8.10;;;;;;;19.89;32.73;101210.25;5093700;28;20050;-23
2021/03/28 10:25:20;;;;;;;11.20;8.20;;;;;;;19.93;32.48;101192.41;5109619;28;20046;-22
2021/03/28 10:28:05;;;;;;;11.25;7.55;;;;;;;20.17;31.92;101205.69;5075065;28;20027;-22
2021/03/28 10:30:48;;;;;;;13.55;8.88;;;;;;;20.41;32.48;101200.75;5109805;28;20035;-22
2021/03/28 10:33:32;;;;;;;15.10;8.27;;;;;;;20.89;30.38;101190.88;5109709;28;20057;-22
2021/03/28 10:36:06;;;;;;;11.40;8.02;;;;;;;20.73;32.12;101189.94;5110005;28;20467;-22
2021/03/28 10:39:04;;;;;;;11.60;7.82;;;;;;;21.10;30.24;101183.69;5092474;28;20160;-23
2021/03/28 10:41:39;;;;;;;12.45;7.88;;;;;;;21.03;31.10;101191.25;5091471;28;20487;-23
2021/03/28 10:44:20;;;;;;;11.95;7.70;;;;;;;21.17;31.46;101178.88;5109571;28;20028;-24
2021/03/28 10:47:10;;;;;;;9.15;6.40;;;;;;;21.48;29.42;101179.06;5109745;28;20096;-23
2021/03/28 10:49:57;;;;;;;12.30;7.80;;;;;;;21.48;32.67;101184.47;5109558;28;20047;-22
2021/03/28 10:53:00;;;;;;;10.82;6.97;;;;;;;21.70;29.72;101180.75;5109418;28;20070;-23
2021/03/28 10:55:45;;;;;;;10.75;6.68;;;;;;;21.53;30.36;101175.53;5107639;28;20510;-23
2021/03/28 10:58:41;;;;;;;10.57;6.57;;;;;;;21.15;29.88;101174.78;5107835;28;20063;-23
2021/03/28 11:01:34;;;;;;;12.18;6.90;;;;;;;21.90;29.37;101169.94;5107693;28;20035;-23
2021/03/28 11:04:50;;;;;;;9.52;6.80;;;;;;;22.04;26.81;101159.41;5107715;28;20052;-23
2021/03/28 11:07:52;;;;;;;14.35;10.73;;;;;;;22.87;27.89;101156.44;5044283;28;20036;-23
2021/03/28 11:10:36;;;;;;;9.88;6.13;;;;;;;22.84;26.97;101157.00;5107796;28;20020;-22
2021/03/28 11:13:32;;;;;;;11.05;6.63;;;;;;;22.63;26.38;101150.75;5107889;28;20352;-23
2021/03/28 11:16:01;;;;;;;10.52;6.20;;;;;;;22.55;25.01;101161.38;5107641;28;20026;-23
2021/03/28 11:18:48;;;;;;;8.98;5.90;;;;;;;23.57;23.84;101150.25;5107514;28;20046;-23
2021/03/28 11:21:29;;;;;;;9.48;6.25;;;;;;;23.63;24.20;101130.06;5107106;28;20030;-23
2021/03/28 11:24:19;;;;;;;10.73;5.80;;;;;;;23.33;25.43;101143.81;5107644;28;20063;-22
2021/03/28 11:27:02;;;;;;;8.45;5.13;;;;;;;22.84;23.52;101142.56;5107487;28;20035;-22
2021/03/28 11:29:52;;;;;;;10.15;6.00;;;;;;;23.26;26.60;101136.78;5107440;28;20039;-23
2021/03/28 11:32:26;;;;;;;9.15;5.82;;;;;;;22.99;24.89;101128.94;5107607;28;20027;-23
2021/03/28 11:35:10;;;;;;;10.80;5.47;;;;;;;23.39;23.61;101123.66;5107362;28;20031;-23
2021/03/28 11:37:42;;;;;;;10.02;7.10;;;;;;;23.71;22.32;101128.69;5107393;28;20020;-23
2021/03/28 11:40:07;;;;;;;8.20;5.18;;;;;;;23.96;21.86;101127.72;5072896;28;20027;-23
2021/03/28 11:42:33;;;;;;;8.27;5.78;;;;;;;23.74;24.31;101108.22;5107385;28;21088;-23
2021/03/28 11:45:04;;;;;;;7.55;5.30;;;;;;;23.47;24.59;101110.28;5089056;28;20110;-24
2021/03/28 11:47:49;;;;;;;8.30;5.90;;;;;;;23.70;24.01;101107.16;5107011;28;20028;-23
2021/03/28 11:50:14;;;;;;;11.32;5.43;;;;;;;23.66;24.13;101118.63;5107245;28;20499;-22
2021/03/28 11:52:57;;;;;;;7.93;5.53;;;;;;;23.66;23.94;101107.75;5106993;28;20038;-22
2021/03/28 11:55:35;;;;;;;8.35;5.85;;;;;;;23.59;25.03;101112.66;5089053;28;20043;-23
2021/03/28 11:58:12;;;;;;;7.95;5.22;;;;;;;23.48;23.48;101111.09;5107290;28;20399;-23
2021/03/28 12:00:41;;;;;;;7.68;5.32;;;;;;;23.03;24.17;101112.94;5107522;28;20130;-23
2021/03/28 12:03:18;;;;;;;9.70;5.72;;;;;;;23.09;23.67;101106.38;5106811;28;20052;-22
2021/03/28 12:06:17;;;;;;;8.82;5.45;;;;;;;23.24;24.47;101092.69;5107163;28;20031;-23
2021/03/28 12:08:46;;;;;;;8.30;5.35;;;;;;;23.16;23.34;101098.72;5040962;28;20039;-23
2021/03/28 12:11:31;;;;;;;7.50;5.47;;;;;;;23.57;25.29;101097.72;5106980;28;20027;-20
2021/03/28 12:13:59;;;;;;;8.13;5.10;;;;;;;23.91;24.31;101095.09;5089031;28;20084;-23
2021/03/28 12:16:26;;;;;;;8.15;5.22;;;;;;;24.03;24.51;101090.09;5071822;28;20046;-21
2021/03/28 12:18:54;;;;;;;9.15;5.80;;;;;;;23.66;24.81;101091.41;5071400;28;20044;-22
2021/03/28 12:21:34;;;;;;;9.25;5.65;;;;;;;23.79;23.37;101094.63;5106367;28;20063;-22
2021/03/28 12:24:05;;;;;;;8.90;5.40;;;;;;;23.03;23.74;101081.09;5087728;28;20024;-22
2021/03/28 12:26:48;;;;;;;10.00;5.43;;;;;;;22.63;24.44;101073.81;5088582;28;20043;-23
2021/03/28 12:29:26;;;;;;;10.30;5.63;;;;;;;22.81;25.21;101065.06;5087887;28;20028;-23